This is the latest recevied weather packets stored in our database for station/object N8XHB. If no packets are shown the sender has not sent any weather packets the latest 1 day(s).
| Time | Temp. | Humidity | Pressure | Rain* | Wind** | Luminosity | Snow |
|---|---|---|---|---|---|---|---|
| 1778033303 | 7.22° C | 53% | 1009.5 hPa | 0 mm | - | 0 W/m² | - |
| 1778032396 | 7.22° C | 56% | 1009.4 hPa | 0 mm | - | 0 W/m² | - |
| 1778031789 | 7.78° C | 56% | 1009.1 hPa | 0 mm | - | 0 W/m² | - |
| 1778031486 | 7.78° C | 56% | 1009 hPa | 0 mm | - | 0 W/m² | - |
| 1778030879 | 7.78° C | 51% | 1008.9 hPa | 0 mm | - | 0 W/m² | - |
| 1778030274 | 7.78° C | 50% | 1008.9 hPa | 0 mm | - | 0 W/m² | - |
| 1778029970 | 7.78° C | 49% | 1008.9 hPa | 0 mm | - | 0 W/m² | - |
| 1778029668 | 8.33° C | 50% | 1008.9 hPa | 0 mm | - | 0 W/m² | - |
| 1778029063 | 8.33° C | 49% | 1008.8 hPa | 0 mm | - | 1 W/m² | - |
| 1778028455 | 8.89° C | 47% | 1008.8 hPa | 0 mm | - | 2 W/m² | - |
| 1778028153 | 8.89° C | 46% | 1008.9 hPa | 0 mm | - | 3 W/m² | - |
| 1778026938 | 9.44° C | 45% | 1008.8 hPa | 0 mm | - | 11 W/m² | - |
| 1778026028 | 10° C | 43% | 1008.9 hPa | 0 mm | - | 21 W/m² | - |
| 1778025726 | 10° C | 43% | 1008.6 hPa | 0 mm | - | 23 W/m² | - |
| 1778025121 | 10° C | 44% | 1008.6 hPa | 0 mm | - | 33 W/m² | - |
| 1778024211 | 10° C | 42% | 1008.7 hPa | 0 mm | - | 43 W/m² | - |
| 1778023909 | 10.56° C | 42% | 1008.8 hPa | 0 mm | - | 52 W/m² | - |
| 1778023304 | 10.56° C | 44% | 1008.5 hPa | 0 mm | - | 51 W/m² | - |
| 1778023000 | 10.56° C | 43% | 1008.7 hPa | 0 mm | - | 52 W/m² | - |
| 1778022397 | 10.56° C | 43% | 1008.7 hPa | 0 mm | - | 70 W/m² | - |
| 1778020880 | 11.11° C | 41% | 1008.8 hPa | 0 mm | - | 101 W/m² | - |
| 1778017548 | 11.11° C | 40% | 1008.7 hPa | 0 mm | - | 118 W/m² | - |
| 1778014518 | 11.67° C | 38% | 1008.6 hPa | 0 mm | - | 190 W/m² | - |
| 1778012699 | 12.22° C | 41% | 1008.8 hPa | 0 mm | - | 261 W/m² | - |
| 1778012092 | 11.67° C | 40% | 1009.1 hPa | 0 mm | - | 234 W/m² | - |
* Rain latest hour (hover to see other rain measurements)
** Current wind speed in m/s (hover to see current wind gust speed)